sensor_id;sensor_type;location;lat;lon;timestamp;pressure;altitude;pressure_sealevel;temperature;humidity
46111;BME280;31849;55.992;37.252;2023-01-28T00:04:49;99827.50;;;-0.47;61.79
46111;BME280;31849;55.992;37.252;2023-01-28T00:09:53;99815.88;;;-0.59;61.56
46111;BME280;31849;55.992;37.252;2023-01-28T00:14:57;99825.16;;;-0.61;61.57
46111;BME280;31849;55.992;37.252;2023-01-28T00:20:02;99820.47;;;-0.51;61.59
46111;BME280;31849;55.992;37.252;2023-01-28T00:25:06;99821.91;;;-0.57;61.67
46111;BME280;31849;55.992;37.252;2023-01-28T00:30:10;99824.47;;;-0.57;61.14
46111;BME280;31849;55.992;37.252;2023-01-28T00:35:16;99830.84;;;-0.48;61.11
46111;BME280;31849;55.992;37.252;2023-01-28T00:40:19;99828.84;;;-0.36;61.19
46111;BME280;31849;55.992;37.252;2023-01-28T00:45:22;99823.31;;;-0.63;61.10
46111;BME280;31849;55.992;37.252;2023-01-28T00:50:27;99827.38;;;-0.67;61.41
46111;BME280;31849;55.992;37.252;2023-01-28T00:55:31;99786.22;;;-0.91;60.91
46111;BME280;31849;55.992;37.252;2023-01-28T01:00:34;99827.91;;;-0.74;61.45
46111;BME280;31849;55.992;37.252;2023-01-28T01:05:39;99836.56;;;-0.89;61.33
46111;BME280;31849;55.992;37.252;2023-01-28T01:10:42;99835.16;;;-0.82;61.33
46111;BME280;31849;55.992;37.252;2023-01-28T01:15:46;99836.91;;;-0.99;61.62
46111;BME280;31849;55.992;37.252;2023-01-28T01:20:51;99829.03;;;-1.03;61.56
46111;BME280;31849;55.992;37.252;2023-01-28T01:26:00;99835.97;;;-1.01;61.76
46111;BME280;31849;55.992;37.252;2023-01-28T01:31:05;99842.44;;;-1.08;62.17
46111;BME280;31849;55.992;37.252;2023-01-28T01:36:12;99832.84;;;-1.12;62.14
46111;BME280;31849;55.992;37.252;2023-01-28T01:41:23;99827.38;;;-1.19;62.63
46111;BME280;31849;55.992;37.252;2023-01-28T01:46:33;99829.88;;;-1.37;62.57
46111;BME280;31849;55.992;37.252;2023-01-28T01:51:40;99838.22;;;-1.24;62.47
46111;BME280;31849;55.992;37.252;2023-01-28T01:56:46;99832.72;;;-1.31;62.88
46111;BME280;31849;55.992;37.252;2023-01-28T02:01:51;99834.56;;;-1.29;62.52
46111;BME280;31849;55.992;37.252;2023-01-28T02:06:59;99827.41;;;-1.36;62.72
46111;BME280;31849;55.992;37.252;2023-01-28T02:12:07;99826.59;;;-1.35;62.95
46111;BME280;31849;55.992;37.252;2023-01-28T02:17:12;99832.03;;;-1.29;62.92
46111;BME280;31849;55.992;37.252;2023-01-28T02:28:12;99838.63;;;-1.32;62.63
46111;BME280;31849;55.992;37.252;2023-01-28T02:33:20;99836.50;;;-1.41;62.84
46111;BME280;31849;55.992;37.252;2023-01-28T02:38:29;99836.25;;;-1.46;62.77
46111;BME280;31849;55.992;37.252;2023-01-28T02:43:37;99841.25;;;-1.47;62.68
46111;BME280;31849;55.992;37.252;2023-01-28T02:48:41;99842.09;;;-1.48;62.52
46111;BME280;31849;55.992;37.252;2023-01-28T02:53:49;99852.91;;;-1.52;62.61
46111;BME280;31849;55.992;37.252;2023-01-28T02:59:00;99856.41;;;-1.50;62.72
46111;BME280;31849;55.992;37.252;2023-01-28T03:04:28;99858.00;;;-1.36;62.52
46111;BME280;31849;55.992;37.252;2023-01-28T03:09:32;99854.25;;;-1.43;62.71
46111;BME280;31849;55.992;37.252;2023-01-28T03:14:39;99860.31;;;-1.40;62.52
46111;BME280;31849;55.992;37.252;2023-01-28T03:20:01;99861.03;;;-1.43;62.43
46111;BME280;31849;55.992;37.252;2023-01-28T03:25:25;99857.53;;;-1.45;62.43
46111;BME280;31849;55.992;37.252;2023-01-28T03:30:52;99856.72;;;-1.44;62.41
46111;BME280;31849;55.992;37.252;2023-01-28T03:36:16;99867.59;;;-1.48;62.24
46111;BME280;31849;55.992;37.252;2023-01-28T03:41:37;99856.25;;;-1.37;62.32
46111;BME280;31849;55.992;37.252;2023-01-28T03:46:42;99848.03;;;-1.31;62.30
46111;BME280;31849;55.992;37.252;2023-01-28T03:51:46;99847.03;;;-1.35;62.21
46111;BME280;31849;55.992;37.252;2023-01-28T03:56:50;99838.09;;;-1.43;62.10
46111;BME280;31849;55.992;37.252;2023-01-28T04:01:55;99843.72;;;-1.32;62.01
46111;BME280;31849;55.992;37.252;2023-01-28T04:06:59;99854.25;;;-1.43;62.08
46111;BME280;31849;55.992;37.252;2023-01-28T04:12:03;99854.44;;;-1.39;62.31
46111;BME280;31849;55.992;37.252;2023-01-28T04:17:08;99856.41;;;-1.34;62.03
46111;BME280;31849;55.992;37.252;2023-01-28T04:22:12;99856.09;;;-1.40;62.08
46111;BME280;31849;55.992;37.252;2023-01-28T04:27:16;99862.94;;;-1.39;62.12
46111;BME280;31849;55.992;37.252;2023-01-28T04:32:21;99860.72;;;-1.49;62.34
46111;BME280;31849;55.992;37.252;2023-01-28T04:37:24;99859.69;;;-1.53;62.46
46111;BME280;31849;55.992;37.252;2023-01-28T04:42:27;99867.97;;;-1.57;62.21
46111;BME280;31849;55.992;37.252;2023-01-28T04:47:32;99871.06;;;-1.79;62.31
46111;BME280;31849;55.992;37.252;2023-01-28T04:52:36;99881.47;;;-1.91;62.36
46111;BME280;31849;55.992;37.252;2023-01-28T04:57:39;99886.13;;;-2.15;62.63
46111;BME280;31849;55.992;37.252;2023-01-28T05:02:44;99883.16;;;-2.06;62.45
46111;BME280;31849;55.992;37.252;2023-01-28T05:07:51;99892.50;;;-2.07;62.51
46111;BME280;31849;55.992;37.252;2023-01-28T05:12:55;99890.94;;;-2.20;62.68
46111;BME280;31849;55.992;37.252;2023-01-28T05:18:00;99889.13;;;-2.22;62.55
46111;BME280;31849;55.992;37.252;2023-01-28T05:23:04;99894.09;;;-2.09;62.51
46111;BME280;31849;55.992;37.252;2023-01-28T05:28:07;99888.59;;;-2.17;62.60
46111;BME280;31849;55.992;37.252;2023-01-28T05:33:12;99903.50;;;-2.23;62.63
46111;BME280;31849;55.992;37.252;2023-01-28T05:38:16;99904.47;;;-2.21;62.70
46111;BME280;31849;55.992;37.252;2023-01-28T05:43:19;99909.81;;;-2.16;62.51
46111;BME280;31849;55.992;37.252;2023-01-28T05:48:24;99910.88;;;-2.13;62.49
46111;BME280;31849;55.992;37.252;2023-01-28T05:53:28;99907.19;;;-2.18;62.45
46111;BME280;31849;55.992;37.252;2023-01-28T05:58:31;99903.78;;;-2.48;63.22
46111;BME280;31849;55.992;37.252;2023-01-28T06:03:36;99913.88;;;-2.35;63.04
46111;BME280;31849;55.992;37.252;2023-01-28T06:08:39;99911.69;;;-2.28;62.61
46111;BME280;31849;55.992;37.252;2023-01-28T06:13:43;99920.41;;;-2.40;62.60
46111;BME280;31849;55.992;37.252;2023-01-28T06:18:48;99907.47;;;-2.28;62.49
46111;BME280;31849;55.992;37.252;2023-01-28T06:23:51;99917.56;;;-2.15;62.32
46111;BME280;31849;55.992;37.252;2023-01-28T06:28:55;99919.31;;;-2.14;61.97
46111;BME280;31849;55.992;37.252;2023-01-28T06:34:00;99922.06;;;-2.25;62.13
46111;BME280;31849;55.992;37.252;2023-01-28T06:39:03;99928.94;;;-2.08;62.10
46111;BME280;31849;55.992;37.252;2023-01-28T06:44:07;99930.75;;;-1.90;61.64
46111;BME280;31849;55.992;37.252;2023-01-28T06:49:12;99930.94;;;-1.87;61.43
46111;BME280;31849;55.992;37.252;2023-01-28T06:54:16;99927.03;;;-1.97;61.35
46111;BME280;31849;55.992;37.252;2023-01-28T06:59:19;99933.41;;;-1.89;61.24
46111;BME280;31849;55.992;37.252;2023-01-28T07:04:24;99925.25;;;-1.67;61.02
46111;BME280;31849;55.992;37.252;2023-01-28T07:09:28;99926.09;;;-1.51;60.76
46111;BME280;31849;55.992;37.252;2023-01-28T07:14:31;99917.78;;;-1.47;60.74
46111;BME280;31849;55.992;37.252;2023-01-28T07:19:36;99908.53;;;-1.12;61.04
46111;BME280;31849;55.992;37.252;2023-01-28T07:24:40;99915.63;;;-0.90;60.08
46111;BME280;31849;55.992;37.252;2023-01-28T07:29:43;99919.59;;;-0.79;59.50
46111;BME280;31849;55.992;37.252;2023-01-28T07:34:48;99918.91;;;-0.93;59.65
46111;BME280;31849;55.992;37.252;2023-01-28T07:39:53;99920.03;;;-0.87;59.09
46111;BME280;31849;55.992;37.252;2023-01-28T07:44:57;99921.28;;;-0.96;59.19
46111;BME280;31849;55.992;37.252;2023-01-28T07:50:02;99924.41;;;-1.01;58.98
46111;BME280;31849;55.992;37.252;2023-01-28T07:55:06;99925.59;;;-0.78;58.83
46111;BME280;31849;55.992;37.252;2023-01-28T08:00:11;99927.91;;;-0.83;58.71
46111;BME280;31849;55.992;37.252;2023-01-28T08:05:18;99923.09;;;-0.77;58.50
46111;BME280;31849;55.992;37.252;2023-01-28T08:10:22;99921.38;;;-0.94;58.38
46111;BME280;31849;55.992;37.252;2023-01-28T08:15:27;99921.75;;;-0.86;58.73
46111;BME280;31849;55.992;37.252;2023-01-28T08:20:32;99913.69;;;-0.78;58.21
46111;BME280;31849;55.992;37.252;2023-01-28T08:25:35;99902.22;;;-0.86;58.20
46111;BME280;31849;55.992;37.252;2023-01-28T08:30:39;99904.25;;;-0.79;57.93
46111;BME280;31849;55.992;37.252;2023-01-28T08:35:45;99905.56;;;-0.87;58.36
46111;BME280;31849;55.992;37.252;2023-01-28T08:40:49;99906.13;;;-0.58;57.85
46111;BME280;31849;55.992;37.252;2023-01-28T08:45:55;99905.25;;;-0.59;58.12
46111;BME280;31849;55.992;37.252;2023-01-28T08:50:59;99891.00;;;-0.37;57.20
46111;BME280;31849;55.992;37.252;2023-01-28T08:56:03;99900.59;;;-0.13;57.29
46111;BME280;31849;55.992;37.252;2023-01-28T09:01:06;99904.56;;;-0.20;56.89
46111;BME280;31849;55.992;37.252;2023-01-28T09:06:11;99903.91;;;-0.34;57.12
46111;BME280;31849;55.992;37.252;2023-01-28T09:11:15;99881.72;;;-0.35;56.95
46111;BME280;31849;55.992;37.252;2023-01-28T09:16:18;99897.03;;;-0.35;56.42
46111;BME280;31849;55.992;37.252;2023-01-28T09:21:23;99883.84;;;-0.44;57.00
46111;BME280;31849;55.992;37.252;2023-01-28T09:26:26;99885.13;;;-0.34;56.96
46111;BME280;31849;55.992;37.252;2023-01-28T09:31:30;99883.44;;;-0.52;56.82
46111;BME280;31849;55.992;37.252;2023-01-28T09:36:35;99881.84;;;-0.50;56.79
46111;BME280;31849;55.992;37.252;2023-01-28T09:41:46;99881.84;;;-0.68;57.27
46111;BME280;31849;55.992;37.252;2023-01-28T09:46:59;99878.31;;;-0.70;57.34
46111;BME280;31849;55.992;37.252;2023-01-28T09:52:11;99885.19;;;-0.51;56.97
46111;BME280;31849;55.992;37.252;2023-01-28T09:57:20;99873.69;;;-0.43;56.91
46111;BME280;31849;55.992;37.252;2023-01-28T10:02:40;99866.81;;;-0.62;56.79
46111;BME280;31849;55.992;37.252;2023-01-28T10:07:56;99864.75;;;-0.51;56.60
46111;BME280;31849;55.992;37.252;2023-01-28T10:13:14;99867.19;;;-0.36;56.27
46111;BME280;31849;55.992;37.252;2023-01-28T10:18:31;99850.53;;;-0.28;56.05
46111;BME280;31849;55.992;37.252;2023-01-28T10:23:45;99853.81;;;-0.30;56.44
46111;BME280;31849;55.992;37.252;2023-01-28T10:28:57;99844.84;;;-0.22;56.41
46111;BME280;31849;55.992;37.252;2023-01-28T10:34:02;99836.22;;;-0.42;56.25
46111;BME280;31849;55.992;37.252;2023-01-28T10:39:08;99838.66;;;-0.45;56.34
46111;BME280;31849;55.992;37.252;2023-01-28T10:44:17;99836.88;;;-0.46;56.42
46111;BME280;31849;55.992;37.252;2023-01-28T10:49:26;99838.28;;;-0.35;56.41
46111;BME280;31849;55.992;37.252;2023-01-28T10:54:31;99828.56;;;-0.24;56.35
46111;BME280;31849;55.992;37.252;2023-01-28T10:59:35;99821.53;;;-0.10;56.09
46111;BME280;31849;55.992;37.252;2023-01-28T11:04:42;99824.31;;;-0.06;55.67
46111;BME280;31849;55.992;37.252;2023-01-28T11:09:49;99820.34;;;0.01;55.77
46111;BME280;31849;55.992;37.252;2023-01-28T11:14:54;99802.16;;;-0.05;55.13
46111;BME280;31849;55.992;37.252;2023-01-28T11:20:00;99813.84;;;0.08;55.34
46111;BME280;31849;55.992;37.252;2023-01-28T11:25:17;99803.59;;;0.08;55.37
46111;BME280;31849;55.992;37.252;2023-01-28T11:30:23;99802.56;;;0.04;55.52
46111;BME280;31849;55.992;37.252;2023-01-28T11:35:29;99799.41;;;-0.10;55.85
46111;BME280;31849;55.992;37.252;2023-01-28T11:40:34;99788.19;;;0.06;55.34
46111;BME280;31849;55.992;37.252;2023-01-28T11:45:42;99782.19;;;0.06;55.53
46111;BME280;31849;55.992;37.252;2023-01-28T11:50:54;99778.38;;;0.15;54.85
46111;BME280;31849;55.992;37.252;2023-01-28T11:56:18;99761.53;;;0.21;55.21
46111;BME280;31849;55.992;37.252;2023-01-28T12:01:33;99770.56;;;0.32;55.31
46111;BME280;31849;55.992;37.252;2023-01-28T12:07:00;99771.84;;;0.22;54.81
46111;BME280;31849;55.992;37.252;2023-01-28T12:12:20;99766.78;;;0.24;54.84
46111;BME280;31849;55.992;37.252;2023-01-28T12:17:35;99767.88;;;0.09;55.15
46111;BME280;31849;55.992;37.252;2023-01-28T12:23:03;99759.69;;;0.16;55.15
46111;BME280;31849;55.992;37.252;2023-01-28T12:28:17;99748.16;;;0.07;55.27
46111;BME280;31849;55.992;37.252;2023-01-28T12:33:43;99747.50;;;0.11;54.94
46111;BME280;31849;55.992;37.252;2023-01-28T12:38:56;99736.94;;;0.03;54.97
46111;BME280;31849;55.992;37.252;2023-01-28T12:44:09;99725.81;;;0.03;55.34
46111;BME280;31849;55.992;37.252;2023-01-28T12:49:18;99732.09;;;0.09;55.42
46111;BME280;31849;55.992;37.252;2023-01-28T12:54:27;99729.25;;;0.03;55.45
46111;BME280;31849;55.992;37.252;2023-01-28T12:59:40;99738.50;;;-0.38;56.01
46111;BME280;31849;55.992;37.252;2023-01-28T13:04:50;99734.97;;;-0.22;55.94
46111;BME280;31849;55.992;37.252;2023-01-28T13:10:01;99727.97;;;-0.26;56.20
46111;BME280;31849;55.992;37.252;2023-01-28T13:15:12;99736.34;;;-0.29;56.30
46111;BME280;31849;55.992;37.252;2023-01-28T13:20:29;99715.84;;;-0.30;55.64
46111;BME280;31849;55.992;37.252;2023-01-28T13:25:34;99733.94;;;-0.26;56.18
46111;BME280;31849;55.992;37.252;2023-01-28T13:30:47;99729.28;;;-0.15;55.99
46111;BME280;31849;55.992;37.252;2023-01-28T13:35:53;99717.47;;;-0.32;56.02
46111;BME280;31849;55.992;37.252;2023-01-28T13:40:58;99720.75;;;-0.35;56.16
46111;BME280;31849;55.992;37.252;2023-01-28T13:46:09;99720.28;;;-0.46;56.27
46111;BME280;31849;55.992;37.252;2023-01-28T13:51:17;99706.59;;;-0.46;55.82
46111;BME280;31849;55.992;37.252;2023-01-28T13:56:27;99703.50;;;-0.59;56.65
46111;BME280;31849;55.992;37.252;2023-01-28T14:01:56;99696.50;;;-0.81;57.14
46111;BME280;31849;55.992;37.252;2023-01-28T14:13:20;99695.91;;;-1.29;58.39
46111;BME280;31849;55.992;37.252;2023-01-28T14:18:34;99697.59;;;-1.12;58.09
46111;BME280;31849;55.992;37.252;2023-01-28T14:23:44;99696.59;;;-0.97;57.57
46111;BME280;31849;55.992;37.252;2023-01-28T14:28:55;99690.09;;;-0.91;57.60
46111;BME280;31849;55.992;37.252;2023-01-28T14:34:08;99685.38;;;-0.83;57.59
46111;BME280;31849;55.992;37.252;2023-01-28T14:39:16;99684.41;;;-0.85;57.62
46111;BME280;31849;55.992;37.252;2023-01-28T14:44:26;99686.88;;;-0.86;57.73
46111;BME280;31849;55.992;37.252;2023-01-28T14:49:37;99686.09;;;-0.85;57.56
46111;BME280;31849;55.992;37.252;2023-01-28T14:54:51;99685.94;;;-0.89;57.62
46111;BME280;31849;55.992;37.252;2023-01-28T15:00:00;99675.53;;;-0.93;57.29
46111;BME280;31849;55.992;37.252;2023-01-28T15:05:15;99683.03;;;-0.96;57.89
46111;BME280;31849;55.992;37.252;2023-01-28T15:10:23;99668.81;;;-0.91;57.61
46111;BME280;31849;55.992;37.252;2023-01-28T15:15:32;99665.47;;;-1.08;58.06
46111;BME280;31849;55.992;37.252;2023-01-28T15:20:43;99672.47;;;-0.86;57.84
46111;BME280;31849;55.992;37.252;2023-01-28T15:25:47;99666.19;;;-1.29;58.59
46111;BME280;31849;55.992;37.252;2023-01-28T15:30:50;99661.09;;;-1.29;58.45
46111;BME280;31849;55.992;37.252;2023-01-28T15:35:56;99659.25;;;-1.13;58.61
46111;BME280;31849;55.992;37.252;2023-01-28T15:41:02;99647.47;;;-1.11;57.82
46111;BME280;31849;55.992;37.252;2023-01-28T15:46:09;99653.06;;;-1.00;57.90
46111;BME280;31849;55.992;37.252;2023-01-28T15:51:19;99644.22;;;-1.07;58.12
46111;BME280;31849;55.992;37.252;2023-01-28T15:56:27;99633.75;;;-1.13;58.21
46111;BME280;31849;55.992;37.252;2023-01-28T16:01:30;99634.91;;;-1.07;58.18
46111;BME280;31849;55.992;37.252;2023-01-28T16:06:38;99624.94;;;-1.20;58.62
46111;BME280;31849;55.992;37.252;2023-01-28T16:11:42;99626.47;;;-1.24;58.63
46111;BME280;31849;55.992;37.252;2023-01-28T16:16:47;99627.72;;;-1.15;58.60
46111;BME280;31849;55.992;37.252;2023-01-28T16:21:52;99620.63;;;-1.21;58.65
46111;BME280;31849;55.992;37.252;2023-01-28T16:26:56;99609.78;;;-1.35;58.73
46111;BME280;31849;55.992;37.252;2023-01-28T16:32:01;99602.91;;;-1.36;58.73
46111;BME280;31849;55.992;37.252;2023-01-28T16:37:09;99596.00;;;-1.38;58.43
46111;BME280;31849;55.992;37.252;2023-01-28T16:42:13;99614.81;;;-1.36;59.04
46111;BME280;31849;55.992;37.252;2023-01-28T16:47:16;99613.56;;;-1.45;58.97
46111;BME280;31849;55.992;37.252;2023-01-28T16:52:21;99608.88;;;-1.35;58.76
46111;BME280;31849;55.992;37.252;2023-01-28T16:57:25;99611.38;;;-1.37;59.14
46111;BME280;31849;55.992;37.252;2023-01-28T17:02:29;99611.59;;;-1.32;58.73
46111;BME280;31849;55.992;37.252;2023-01-28T17:07:34;99607.88;;;-1.21;58.61
46111;BME280;31849;55.992;37.252;2023-01-28T17:12:37;99607.94;;;-1.19;58.37
46111;BME280;31849;55.992;37.252;2023-01-28T17:17:40;99607.16;;;-1.18;58.55
46111;BME280;31849;55.992;37.252;2023-01-28T17:22:46;99607.81;;;-1.22;58.63
46111;BME280;31849;55.992;37.252;2023-01-28T17:27:49;99591.09;;;-1.16;58.26
46111;BME280;31849;55.992;37.252;2023-01-28T17:32:53;99586.47;;;-1.25;58.81
46111;BME280;31849;55.992;37.252;2023-01-28T17:37:58;99580.47;;;-1.25;58.53
46111;BME280;31849;55.992;37.252;2023-01-28T17:43:01;99584.72;;;-1.44;59.00
46111;BME280;31849;55.992;37.252;2023-01-28T17:48:05;99578.56;;;-1.47;59.03
46111;BME280;31849;55.992;37.252;2023-01-28T17:53:10;99580.19;;;-1.67;59.38
46111;BME280;31849;55.992;37.252;2023-01-28T17:58:14;99577.41;;;-1.72;59.64
46111;BME280;31849;55.992;37.252;2023-01-28T18:03:17;99575.50;;;-1.76;59.67
46111;BME280;31849;55.992;37.252;2023-01-28T18:08:22;99570.44;;;-1.58;59.41
46111;BME280;31849;55.992;37.252;2023-01-28T18:13:26;99564.59;;;-1.55;59.56
46111;BME280;31849;55.992;37.252;2023-01-28T18:18:29;99572.09;;;-1.58;59.56
46111;BME280;31849;55.992;37.252;2023-01-28T18:23:34;99567.66;;;-1.45;59.35
46111;BME280;31849;55.992;37.252;2023-01-28T18:28:38;99549.06;;;-1.42;59.30
46111;BME280;31849;55.992;37.252;2023-01-28T18:33:41;99545.19;;;-1.34;59.44
46111;BME280;31849;55.992;37.252;2023-01-28T18:38:46;99540.16;;;-1.14;58.75
46111;BME280;31849;55.992;37.252;2023-01-28T18:43:50;99538.59;;;-1.11;58.46
46111;BME280;31849;55.992;37.252;2023-01-28T18:48:55;99531.75;;;-1.12;58.71
46111;BME280;31849;55.992;37.252;2023-01-28T18:54:02;99532.56;;;-1.13;58.88
46111;BME280;31849;55.992;37.252;2023-01-28T18:59:11;99527.66;;;-1.08;58.93
46111;BME280;31849;55.992;37.252;2023-01-28T19:04:16;99522.44;;;-1.11;58.85
46111;BME280;31849;55.992;37.252;2023-01-28T19:09:21;99532.66;;;-0.92;58.75
46111;BME280;31849;55.992;37.252;2023-01-28T19:14:24;99529.13;;;-0.94;58.54
46111;BME280;31849;55.992;37.252;2023-01-28T19:19:28;99527.22;;;-0.99;58.71
46111;BME280;31849;55.992;37.252;2023-01-28T19:24:33;99524.09;;;-0.92;58.91
46111;BME280;31849;55.992;37.252;2023-01-28T19:29:37;99523.84;;;-0.98;58.77
46111;BME280;31849;55.992;37.252;2023-01-28T19:34:41;99513.63;;;-0.98;58.70
46111;BME280;31849;55.992;37.252;2023-01-28T19:39:46;99514.78;;;-0.92;58.69
46111;BME280;31849;55.992;37.252;2023-01-28T19:44:49;99509.59;;;-1.13;58.98
46111;BME280;31849;55.992;37.252;2023-01-28T19:49:53;99500.41;;;-1.09;58.82
46111;BME280;31849;55.992;37.252;2023-01-28T19:54:58;99491.81;;;-1.11;58.51
46111;BME280;31849;55.992;37.252;2023-01-28T20:00:03;99484.69;;;-1.18;58.63
46111;BME280;31849;55.992;37.252;2023-01-28T20:05:07;99488.44;;;-1.10;59.12
46111;BME280;31849;55.992;37.252;2023-01-28T20:10:12;99465.00;;;-1.21;58.65
46111;BME280;31849;55.992;37.252;2023-01-28T20:15:15;99481.72;;;-1.28;58.63
46111;BME280;31849;55.992;37.252;2023-01-28T20:20:19;99473.50;;;-1.20;58.50
46111;BME280;31849;55.992;37.252;2023-01-28T20:25:24;99466.28;;;-1.11;58.35
46111;BME280;31849;55.992;37.252;2023-01-28T20:30:28;99467.22;;;-1.29;58.88
46111;BME280;31849;55.992;37.252;2023-01-28T20:35:31;99467.81;;;-1.34;58.77
46111;BME280;31849;55.992;37.252;2023-01-28T20:40:37;99469.09;;;-1.25;58.83
46111;BME280;31849;55.992;37.252;2023-01-28T20:45:43;99449.34;;;-1.29;58.71
46111;BME280;31849;55.992;37.252;2023-01-28T20:50:46;99452.03;;;-1.45;59.21
46111;BME280;31849;55.992;37.252;2023-01-28T20:55:56;99448.25;;;-1.34;58.78
46111;BME280;31849;55.992;37.252;2023-01-28T21:01:00;99450.03;;;-1.33;59.00
46111;BME280;31849;55.992;37.252;2023-01-28T21:06:04;99443.09;;;-1.35;59.29
46111;BME280;31849;55.992;37.252;2023-01-28T21:11:09;99438.22;;;-1.11;58.50
46111;BME280;31849;55.992;37.252;2023-01-28T21:16:13;99419.22;;;-1.18;58.52
46111;BME280;31849;55.992;37.252;2023-01-28T21:21:18;99403.97;;;-1.16;58.96
46111;BME280;31849;55.992;37.252;2023-01-28T21:26:23;99418.00;;;-1.07;58.60
46111;BME280;31849;55.992;37.252;2023-01-28T21:31:27;99407.03;;;-1.04;58.66
46111;BME280;31849;55.992;37.252;2023-01-28T21:36:30;99406.97;;;-1.25;58.92
46111;BME280;31849;55.992;37.252;2023-01-28T21:41:36;99402.06;;;-1.20;58.92
46111;BME280;31849;55.992;37.252;2023-01-28T21:46:40;99407.13;;;-1.22;58.93
46111;BME280;31849;55.992;37.252;2023-01-28T21:51:44;99401.34;;;-1.18;58.83
46111;BME280;31849;55.992;37.252;2023-01-28T21:56:52;99397.72;;;-1.03;58.87
46111;BME280;31849;55.992;37.252;2023-01-28T22:01:57;99403.03;;;-0.99;58.61
46111;BME280;31849;55.992;37.252;2023-01-28T22:07:03;99401.00;;;-1.06;58.85
46111;BME280;31849;55.992;37.252;2023-01-28T22:12:09;99392.41;;;-1.08;58.80
46111;BME280;31849;55.992;37.252;2023-01-28T22:17:12;99393.47;;;-1.03;58.73
46111;BME280;31849;55.992;37.252;2023-01-28T22:22:16;99389.63;;;-1.14;59.08
46111;BME280;31849;55.992;37.252;2023-01-28T22:27:21;99391.59;;;-1.07;58.83
46111;BME280;31849;55.992;37.252;2023-01-28T22:32:27;99378.13;;;-1.24;59.10
46111;BME280;31849;55.992;37.252;2023-01-28T22:37:31;99372.22;;;-1.23;58.68
46111;BME280;31849;55.992;37.252;2023-01-28T22:42:36;99373.16;;;-1.40;59.42
46111;BME280;31849;55.992;37.252;2023-01-28T22:47:39;99360.13;;;-1.27;59.26
46111;BME280;31849;55.992;37.252;2023-01-28T22:52:46;99358.72;;;-1.20;58.42
46111;BME280;31849;55.992;37.252;2023-01-28T22:57:51;99344.28;;;-1.20;58.18
46111;BME280;31849;55.992;37.252;2023-01-28T23:02:54;99335.81;;;-1.19;57.68
46111;BME280;31849;55.992;37.252;2023-01-28T23:07:57;99328.38;;;-1.34;58.42
46111;BME280;31849;55.992;37.252;2023-01-28T23:13:13;99319.22;;;-1.50;58.28
46111;BME280;31849;55.992;37.252;2023-01-28T23:18:19;99323.22;;;-1.35;57.67
46111;BME280;31849;55.992;37.252;2023-01-28T23:23:40;99318.88;;;-1.38;57.84
46111;BME280;31849;55.992;37.252;2023-01-28T23:29:02;99304.31;;;-1.40;57.97
46111;BME280;31849;55.992;37.252;2023-01-28T23:34:06;99310.47;;;-1.35;57.76
46111;BME280;31849;55.992;37.252;2023-01-28T23:39:10;99302.69;;;-1.38;57.73
46111;BME280;31849;55.992;37.252;2023-01-28T23:44:15;99284.06;;;-1.57;57.84
46111;BME280;31849;55.992;37.252;2023-01-28T23:49:19;99263.47;;;-1.62;57.90
46111;BME280;31849;55.992;37.252;2023-01-28T23:54:23;99277.09;;;-1.40;57.51
46111;BME280;31849;55.992;37.252;2023-01-28T23:59:28;99275.50;;;-1.38;57.65
